Time;durP1;ratioP1;P1;durP2;ratioP2;P2;SDS_P1;SDS_P2;PMS_P1;PMS_P2;Temp;Humidity;BMP_temperature;BMP_pressure;BME280_temperature;BME280_humidity;BME280_pressure;Samples;Min_cycle;Max_cycle;Signal;HPM_P1;HPM_P2
2022/04/08 00:01:55;;;;;;;5.45;0.98;;;18.70;57.40;;;;;;5009463;28;20026;-75
2022/04/08 00:04:21;;;;;;;4.43;1.05;;;18.70;57.70;;;;;;5003820;28;20026;-71
2022/04/08 00:06:48;;;;;;;4.78;0.80;;;18.70;57.60;;;;;;5008984;28;20113;-71
2022/04/08 00:09:14;;;;;;;3.20;0.73;;;18.70;57.40;;;;;;5006759;28;20535;-76
2022/04/08 00:11:41;;;;;;;10.63;1.30;;;18.70;57.40;;;;;;5009260;28;20377;-75
2022/04/08 00:14:07;;;;;;;2.47;1.20;;;18.70;57.80;;;;;;5006644;28;20018;-72
2022/04/08 00:16:34;;;;;;;3.63;0.80;;;18.70;57.80;;;;;;5007175;28;20034;-74
2022/04/08 00:19:00;;;;;;;3.65;0.88;;;18.70;57.90;;;;;;5007222;28;20418;-72
2022/04/08 00:21:28;;;;;;;3.40;0.75;;;18.60;57.90;;;;;;5007079;28;20105;-72
2022/04/08 00:23:54;;;;;;;3.50;1.70;;;18.60;58.10;;;;;;5010690;28;20618;-72
2022/04/08 00:26:21;;;;;;;4.00;0.88;;;18.60;58.30;;;;;;5006400;28;20029;-76
2022/04/08 00:28:47;;;;;;;7.95;0.85;;;18.60;58.40;;;;;;5007171;28;20033;-73
2022/04/08 00:31:17;;;;;;;15.00;1.58;;;18.60;58.60;;;;;;5004293;28;20038;-77
2022/04/08 00:33:44;;;;;;;6.80;0.88;;;18.60;58.80;;;;;;5008287;28;20045;-72
2022/04/08 00:36:11;;;;;;;5.95;1.23;;;18.60;58.80;;;;;;5006942;28;20018;-77
2022/04/08 00:38:37;;;;;;;4.38;0.75;;;18.60;58.90;;;;;;5007132;28;20076;-72
2022/04/08 00:41:04;;;;;;;5.30;0.93;;;18.50;59.00;;;;;;5008403;28;20453;-78
2022/04/08 00:43:39;;;;;;;10.45;1.35;;;18.60;59.10;;;;;;5003902;28;20022;-75
2022/04/08 00:46:08;;;;;;;17.45;1.50;;;18.50;59.00;;;;;;5007674;28;20033;-72
2022/04/08 00:48:36;;;;;;;8.85;1.25;;;18.50;59.40;;;;;;5006476;28;20029;-76
2022/04/08 00:51:08;;;;;;;2.88;0.70;;;18.50;59.50;;;;;;5006197;28;20022;-73
2022/04/08 00:53:38;;;;;;;2.33;0.68;;;18.60;59.40;;;;;;5005702;28;20026;-71
2022/04/08 00:56:05;;;;;;;3.45;0.93;;;18.60;59.50;;;;;;5002369;28;20945;-71
2022/04/08 00:58:35;;;;;;;7.68;1.40;;;18.50;59.40;;;;;;5006032;28;20018;-71
2022/04/08 01:01:01;;;;;;;3.28;0.75;;;18.50;59.50;;;;;;5007652;28;20041;-72
2022/04/08 01:03:28;;;;;;;2.38;0.60;;;18.50;59.60;;;;;;5008062;28;20018;-72
2022/04/08 01:05:54;;;;;;;7.50;1.10;;;18.50;59.60;;;;;;5007857;28;20044;-71
2022/04/08 01:08:21;;;;;;;4.07;0.88;;;18.50;59.60;;;;;;5007134;28;20025;-72
2022/04/08 01:10:50;;;;;;;4.07;0.95;;;18.50;59.60;;;;;;5008423;28;20026;-72
2022/04/08 01:13:16;;;;;;;4.43;1.25;;;18.50;59.60;;;;;;5005968;28;20516;-72
2022/04/08 01:15:43;;;;;;;4.13;0.98;;;18.50;59.80;;;;;;5006111;28;20022;-72
2022/04/08 01:18:10;;;;;;;6.85;2.08;;;18.40;60.40;;;;;;5006196;28;20015;-74
2022/04/08 01:20:36;;;;;;;6.38;1.67;;;18.40;59.80;;;;;;5009341;28;20038;-72
2022/04/08 01:23:03;;;;;;;3.00;2.78;;;18.40;59.90;;;;;;5005433;28;20462;-72
2022/04/08 01:25:30;;;;;;;4.50;1.63;;;18.40;59.90;;;;;;5008034;28;20029;-71
2022/04/08 01:27:56;;;;;;;6.47;1.95;;;18.40;59.90;;;;;;5003434;28;20025;-71
2022/04/08 01:30:23;;;;;;;5.18;1.65;;;18.40;59.90;;;;;;5003841;28;20049;-72
2022/04/08 01:32:50;;;;;;;3.80;1.80;;;18.40;59.90;;;;;;5008417;28;20018;-76
2022/04/08 01:35:16;;;;;;;8.30;1.58;;;18.40;60.00;;;;;;5006769;28;20014;-71
2022/04/08 01:37:43;;;;;;;2.80;1.42;;;18.40;60.00;;;;;;5007689;28;20044;-71
2022/04/08 01:40:10;;;;;;;8.13;1.50;;;18.40;60.00;;;;;;5006565;28;20018;-71
2022/04/08 01:42:37;;;;;;;9.68;1.45;;;18.30;60.00;;;;;;5009384;28;20076;-72
2022/04/08 01:45:04;;;;;;;4.32;1.85;;;18.30;60.30;;;;;;5000065;28;20490;-71
2022/04/08 01:47:30;;;;;;;20.50;4.30;;;18.30;60.40;;;;;;5006883;28;20495;-71
2022/04/08 01:49:57;;;;;;;6.30;2.20;;;18.30;60.70;;;;;;5004340;28;20037;-71
2022/04/08 01:52:23;;;;;;;4.10;1.20;;;18.30;60.60;;;;;;5007200;28;20026;-72
2022/04/08 01:54:50;;;;;;;3.72;1.20;;;18.30;60.40;;;;;;5008512;28;20083;-74
2022/04/08 01:57:18;;;;;;;4.68;1.05;;;18.30;60.20;;;;;;5004864;28;20045;-71
2022/04/08 01:59:44;;;;;;;2.28;1.08;;;18.30;60.10;;;;;;5007404;28;20030;-71
2022/04/08 02:02:11;;;;;;;4.20;1.00;;;18.30;60.10;;;;;;5003122;28;20026;-71
2022/04/08 02:04:38;;;;;;;10.55;3.70;;;18.30;60.00;;;;;;5009116;28;20026;-76
2022/04/08 02:07:06;;;;;;;10.15;2.72;;;18.20;60.10;;;;;;5006322;28;20017;-71
2022/04/08 02:09:33;;;;;;;10.10;3.70;;;18.20;60.20;;;;;;5003044;28;20046;-72
2022/04/08 02:12:00;;;;;;;18.42;2.30;;;18.20;60.50;;;;;;5023070;28;20508;-72
2022/04/08 02:14:26;;;;;;;3.85;1.10;;;18.20;60.60;;;;;;5003382;28;20514;-71
2022/04/08 02:16:53;;;;;;;2.88;1.08;;;18.20;60.50;;;;;;5006898;28;20739;-71
2022/04/08 02:19:20;;;;;;;2.58;1.00;;;18.20;60.50;;;;;;5006505;28;20026;-72
2022/04/08 02:21:48;;;;;;;4.72;1.33;;;18.20;60.40;;;;;;5007470;28;20014;-73
2022/04/08 02:24:14;;;;;;;7.00;1.80;;;18.20;60.30;;;;;;5006676;28;20476;-71
2022/04/08 02:26:41;;;;;;;6.82;1.25;;;18.20;60.30;;;;;;5007080;28;20018;-71
2022/04/08 02:29:07;;;;;;;5.93;1.40;;;18.20;60.40;;;;;;5002964;28;20160;-73
2022/04/08 02:31:34;;;;;;;10.43;1.65;;;18.10;60.50;;;;;;4999472;28;20043;-71
2022/04/08 02:34:00;;;;;;;11.45;1.33;;;18.10;60.70;;;;;;5007926;28;20481;-73
2022/04/08 02:36:27;;;;;;;3.63;1.10;;;18.20;60.60;;;;;;5007553;28;20133;-73
2022/04/08 02:38:53;;;;;;;6.78;1.58;;;18.10;60.40;;;;;;5012482;28;20025;-71
2022/04/08 02:41:20;;;;;;;3.75;1.35;;;18.10;60.30;;;;;;5007755;28;20026;-72
2022/04/08 02:43:48;;;;;;;7.32;1.83;;;18.10;60.30;;;;;;5009137;28;20412;-72
2022/04/08 02:46:14;;;;;;;7.88;1.10;;;18.10;60.40;;;;;;5011421;28;20018;-70
2022/04/08 02:48:41;;;;;;;6.25;1.27;;;18.00;60.40;;;;;;5008169;28;20032;-71
2022/04/08 02:51:07;;;;;;;6.03;1.00;;;18.00;60.50;;;;;;5006723;28;20818;-71
2022/04/08 02:53:34;;;;;;;2.47;0.75;;;18.00;60.60;;;;;;5009842;28;20034;-75
2022/04/08 02:56:01;;;;;;;2.08;1.02;;;18.00;60.70;;;;;;5009515;28;20046;-71
2022/04/08 02:58:28;;;;;;;7.15;1.20;;;17.90;60.60;;;;;;5007002;28;20475;-73
2022/04/08 03:00:57;;;;;;;16.55;1.88;;;18.00;60.50;;;;;;5010995;28;20522;-76
2022/04/08 03:03:27;;;;;;;10.27;1.98;;;17.90;60.50;;;;;;5008343;28;20092;-71
2022/04/08 03:05:54;;;;;;;3.75;1.20;;;17.90;60.40;;;;;;5011221;28;20029;-72
2022/04/08 03:08:22;;;;;;;9.73;1.30;;;17.90;60.50;;;;;;5012250;28;20018;-72
2022/04/08 03:10:48;;;;;;;5.20;0.95;;;17.90;60.70;;;;;;5010633;28;20033;-72
2022/04/08 03:13:15;;;;;;;5.07;1.10;;;17.90;60.80;;;;;;5008710;28;20029;-74
2022/04/08 03:15:41;;;;;;;4.20;1.10;;;17.90;60.90;;;;;;5010931;28;20014;-71
2022/04/08 03:18:08;;;;;;;6.20;1.83;;;17.90;61.10;;;;;;5009652;28;20022;-73
2022/04/08 03:20:34;;;;;;;10.57;1.50;;;17.90;61.20;;;;;;5008582;28;20105;-71
2022/04/08 03:23:01;;;;;;;3.85;1.00;;;17.90;61.30;;;;;;5006024;28;20101;-72
2022/04/08 03:25:27;;;;;;;9.55;1.30;;;17.90;61.50;;;;;;5006765;28;20025;-72
2022/04/08 03:27:54;;;;;;;10.77;1.60;;;17.90;61.10;;;;;;5004315;28;20105;-73
2022/04/08 03:30:20;;;;;;;3.15;0.77;;;17.90;60.80;;;;;;5010039;28;20026;-71
2022/04/08 03:32:47;;;;;;;6.78;0.77;;;17.90;60.70;;;;;;5009939;28;20021;-71
2022/04/08 03:35:13;;;;;;;8.18;1.35;;;17.90;60.60;;;;;;5006260;28;20121;-76
2022/04/08 03:37:40;;;;;;;4.22;1.48;;;17.90;60.50;;;;;;5011148;28;20048;-72
2022/04/08 03:40:07;;;;;;;3.28;0.60;;;17.90;60.50;;;;;;5001033;28;20024;-73
2022/04/08 03:42:34;;;;;;;5.35;0.93;;;17.90;60.50;;;;;;5005792;28;20087;-71
2022/04/08 03:45:01;;;;;;;4.03;0.70;;;17.90;60.50;;;;;;5008878;28;20010;-72
2022/04/08 03:47:27;;;;;;;7.25;1.00;;;17.90;60.60;;;;;;5009026;28;20661;-71
2022/04/08 03:49:53;;;;;;;9.27;1.55;;;17.80;60.70;;;;;;5008290;28;20436;-72
2022/04/08 03:52:20;;;;;;;4.93;1.20;;;17.80;60.70;;;;;;5011359;28;20496;-72
2022/04/08 03:54:47;;;;;;;4.10;1.05;;;17.80;60.80;;;;;;5008977;28;20076;-74
2022/04/08 03:57:14;;;;;;;13.00;1.30;;;17.80;60.90;;;;;;5007657;28;20037;-71
2022/04/08 03:59:44;;;;;;;18.60;3.22;;;17.80;60.90;;;;;;5010243;28;20372;-73
2022/04/08 04:02:11;;;;;;;12.20;1.10;;;17.80;61.30;;;;;;5005719;28;20029;-74
2022/04/08 04:04:37;;;;;;;15.88;5.47;;;17.80;60.70;;;;;;5008520;28;20018;-71
2022/04/08 04:07:04;;;;;;;19.92;11.65;;;17.80;61.70;;;;;;5002522;28;20025;-71
2022/04/08 04:09:30;;;;;;;25.33;12.10;;;17.80;62.20;;;;;;5008993;28;20040;-72
2022/04/08 04:11:57;;;;;;;24.10;4.93;;;17.80;62.20;;;;;;5007966;28;20030;-72
2022/04/08 04:14:24;;;;;;;19.77;3.15;;;17.90;61.80;;;;;;5004707;28;20061;-71
2022/04/08 04:16:50;;;;;;;7.70;1.80;;;17.80;61.60;;;;;;5008269;28;20100;-75
2022/04/08 04:19:17;;;;;;;7.53;5.35;;;17.80;61.40;;;;;;5008493;28;20022;-73
2022/04/08 04:21:44;;;;;;;24.63;18.20;;;17.80;61.30;;;;;;5005952;28;20034;-71
2022/04/08 04:24:10;;;;;;;35.22;13.07;;;17.80;61.30;;;;;;5004034;28;20427;-74
2022/04/08 04:26:37;;;;;;;14.30;7.05;;;17.70;61.50;;;;;;5007339;28;20965;-72
2022/04/08 04:29:03;;;;;;;8.68;3.20;;;17.70;61.60;;;;;;5004299;28;20025;-71
2022/04/08 04:31:30;;;;;;;13.45;2.88;;;17.70;61.80;;;;;;5005993;28;20570;-77
2022/04/08 04:33:56;;;;;;;5.88;1.58;;;17.70;61.80;;;;;;5008351;28;20036;-77
2022/04/08 04:36:23;;;;;;;9.60;2.63;;;17.70;62.20;;;;;;5004114;28;20028;-75
2022/04/08 04:38:50;;;;;;;30.02;14.75;;;17.70;62.50;;;;;;5005515;28;20120;-70
2022/04/08 04:41:17;;;;;;;17.45;9.77;;;17.70;62.60;;;;;;5002015;28;20524;-80
2022/04/08 04:43:44;;;;;;;26.17;7.53;;;17.70;62.60;;;;;;5007689;28;20022;-75
2022/04/08 04:46:10;;;;;;;12.40;3.90;;;17.70;62.80;;;;;;5003117;28;20386;-72
2022/04/08 04:48:37;;;;;;;30.80;5.50;;;17.60;62.70;;;;;;5007020;28;20144;-75
2022/04/08 04:51:03;;;;;;;25.42;2.83;;;17.60;62.70;;;;;;5004149;28;20048;-74
2022/04/08 04:53:30;;;;;;;8.77;2.35;;;17.60;62.90;;;;;;5007849;28;20414;-78
2022/04/08 04:55:58;;;;;;;6.40;1.52;;;17.60;63.00;;;;;;5009137;28;20109;-75
2022/04/08 04:58:24;;;;;;;3.42;1.73;;;17.60;63.00;;;;;;5004591;28;20080;-73
2022/04/08 05:00:51;;;;;;;4.43;1.27;;;17.60;63.10;;;;;;5005835;28;20018;-71
2022/04/08 05:03:17;;;;;;;4.03;1.20;;;17.60;63.10;;;;;;5004680;28;20073;-71
2022/04/08 05:05:44;;;;;;;7.80;2.38;;;17.60;63.20;;;;;;5007142;28;20409;-70
2022/04/08 05:08:10;;;;;;;4.65;1.83;;;17.60;63.20;;;;;;5007994;28;20485;-72
2022/04/08 05:10:37;;;;;;;5.10;1.20;;;17.60;63.40;;;;;;5007620;28;20034;-72
2022/04/08 05:13:03;;;;;;;4.57;2.05;;;17.60;63.50;;;;;;5008060;28;20053;-71
2022/04/08 05:15:32;;;;;;;6.00;1.73;;;17.60;63.50;;;;;;5005154;28;20539;-73
2022/04/08 05:18:00;;;;;;;8.10;3.33;;;17.60;63.60;;;;;;5007604;28;20064;-76
2022/04/08 05:20:26;;;;;;;3.03;1.55;;;17.60;63.70;;;;;;5007224;28;20056;-70
2022/04/08 05:22:53;;;;;;;3.03;1.50;;;17.60;63.80;;;;;;5007514;28;20122;-77
2022/04/08 05:25:20;;;;;;;9.75;1.80;;;17.60;63.70;;;;;;5007200;28;20021;-80
2022/04/08 05:27:46;;;;;;;10.25;2.25;;;17.60;63.80;;;;;;5008831;28;20034;-70
2022/04/08 05:30:18;;;;;;;6.03;1.40;;;17.60;63.80;;;;;;5005491;28;20021;-76
2022/04/08 05:33:25;;;;;;;4.47;1.50;;;17.60;63.80;;;;;;5005631;28;20048;-71
2022/04/08 05:36:31;;;;;;;6.88;1.83;;;17.60;63.70;;;;;;5001918;28;20022;-80
2022/04/08 05:38:57;;;;;;;10.00;3.28;;;17.60;63.70;;;;;;5007016;28;20015;-71
2022/04/08 05:41:24;;;;;;;5.75;2.22;;;17.50;63.70;;;;;;5006392;28;20038;-72
2022/04/08 05:43:50;;;;;;;8.32;2.42;;;17.50;64.20;;;;;;5008244;28;20147;-71
2022/04/08 05:46:17;;;;;;;3.05;1.58;;;17.60;64.30;;;;;;5003082;28;20492;-77
2022/04/08 05:48:43;;;;;;;4.57;1.65;;;17.60;64.40;;;;;;5006719;28;20481;-72
2022/04/08 05:51:10;;;;;;;5.78;1.85;;;17.50;64.40;;;;;;5007838;28;20037;-73
2022/04/08 05:53:36;;;;;;;3.75;2.10;;;17.50;64.10;;;;;;5007068;28;20512;-71
2022/04/08 05:56:03;;;;;;;5.20;2.60;;;17.60;64.00;;;;;;5007728;28;21039;-74
2022/04/08 05:58:30;;;;;;;4.15;2.00;;;17.60;64.00;;;;;;5005290;28;20110;-79
2022/04/08 06:00:57;;;;;;;9.23;2.53;;;17.60;64.00;;;;;;5006516;28;20441;-73
2022/04/08 06:03:24;;;;;;;6.30;1.88;;;17.60;64.20;;;;;;5006666;28;20032;-74
2022/04/08 06:05:50;;;;;;;6.95;2.58;;;17.60;64.40;;;;;;5007157;28;20500;-70
2022/04/08 06:08:17;;;;;;;5.25;2.13;;;17.60;64.50;;;;;;5008741;28;20497;-79
2022/04/08 06:10:43;;;;;;;6.22;3.08;;;17.60;64.70;;;;;;5010094;28;20131;-75
2022/04/08 06:13:10;;;;;;;7.50;2.08;;;17.60;64.70;;;;;;5009943;28;20141;-74
2022/04/08 06:15:36;;;;;;;7.30;2.90;;;17.60;64.80;;;;;;5010964;28;20546;-73
2022/04/08 06:18:03;;;;;;;8.57;2.03;;;17.60;65.10;;;;;;5011640;28;20100;-70
2022/04/08 06:20:30;;;;;;;5.07;2.38;;;17.60;65.30;;;;;;5010253;28;20033;-78
2022/04/08 06:22:56;;;;;;;6.53;2.38;;;17.60;65.30;;;;;;5011793;28;20044;-72
2022/04/08 06:25:24;;;;;;;5.15;2.20;;;17.70;65.40;;;;;;5008951;28;20097;-75
2022/04/08 06:27:59;;;;;;;7.18;3.97;;;17.70;65.40;;;;;;5010417;28;20059;-73
2022/04/08 06:30:26;;;;;;;8.75;2.65;;;17.70;65.20;;;;;;5006446;28;20071;-73
2022/04/08 06:32:52;;;;;;;3.92;2.00;;;17.70;65.30;;;;;;5008506;28;20056;-73
2022/04/08 06:35:19;;;;;;;4.45;2.55;;;17.70;65.20;;;;;;5011072;28;20026;-73
2022/04/08 06:37:45;;;;;;;7.70;2.60;;;17.70;65.10;;;;;;5007766;28;20018;-73
2022/04/08 06:40:12;;;;;;;5.32;2.10;;;17.80;65.20;;;;;;5010092;28;20065;-73
2022/04/08 06:42:39;;;;;;;24.45;5.30;;;17.80;65.10;;;;;;5008588;28;20018;-73
2022/04/08 06:45:08;;;;;;;6.70;2.92;;;17.80;64.90;;;;;;5008466;28;20098;-73
2022/04/08 06:47:43;;;;;;;5.22;2.08;;;17.80;64.40;;;;;;5010362;28;20535;-72
2022/04/08 06:50:10;;;;;;;7.88;2.00;;;17.80;64.00;;;;;;5008604;28;20025;-72
2022/04/08 06:52:36;;;;;;;20.05;2.92;;;17.90;63.70;;;;;;5010011;28;20022;-75
2022/04/08 06:55:03;;;;;;;13.75;2.85;;;17.90;63.40;;;;;;5009415;28;20054;-72
2022/04/08 06:57:29;;;;;;;9.35;2.67;;;17.90;63.10;;;;;;5011104;28;20044;-73
2022/04/08 06:59:56;;;;;;;8.60;2.17;;;17.90;62.70;;;;;;5009464;28;20125;-74
2022/04/08 07:02:22;;;;;;;12.30;3.25;;;17.90;62.60;;;;;;5010454;28;20064;-73
2022/04/08 07:04:50;;;;;;;16.45;5.75;;;18.00;62.40;;;;;;5009823;28;20014;-73
2022/04/08 07:07:16;;;;;;;11.77;3.15;;;18.00;62.10;;;;;;5009959;28;20527;-74
2022/04/08 07:09:42;;;;;;;17.08;2.75;;;18.00;62.00;;;;;;5010571;28;20424;-74
2022/04/08 07:12:09;;;;;;;7.55;2.10;;;18.10;61.90;;;;;;5009166;28;20045;-73
2022/04/08 07:14:35;;;;;;;9.60;2.25;;;18.10;61.30;;;;;;5008808;28;20061;-73
2022/04/08 07:17:02;;;;;;;11.57;2.47;;;18.10;61.00;;;;;;5007292;28;20363;-78
2022/04/08 07:19:29;;;;;;;4.70;1.90;;;18.20;60.90;;;;;;5007573;28;20370;-74
2022/04/08 07:21:56;;;;;;;5.30;2.00;;;18.20;60.70;;;;;;5009812;28;20029;-76
2022/04/08 07:24:22;;;;;;;3.15;1.45;;;18.20;60.50;;;;;;5010817;28;20006;-75
2022/04/08 07:26:49;;;;;;;2.80;1.75;;;18.30;60.30;;;;;;5008718;28;20381;-74
2022/04/08 07:29:15;;;;;;;3.45;1.27;;;18.30;60.20;;;;;;5009191;28;20022;-76
2022/04/08 07:31:41;;;;;;;3.95;1.50;;;18.30;59.60;;;;;;5010400;28;20041;-73
2022/04/08 07:34:08;;;;;;;2.38;1.25;;;18.40;59.70;;;;;;5008858;28;20029;-78
2022/04/08 07:36:34;;;;;;;4.05;1.15;;;18.40;58.50;;;;;;5009376;28;20021;-73
2022/04/08 07:39:01;;;;;;;5.80;1.73;;;18.40;58.30;;;;;;5010426;28;20033;-73
2022/04/08 07:41:28;;;;;;;4.75;1.00;;;18.40;58.20;;;;;;5009457;28;20064;-73
2022/04/08 07:43:55;;;;;;;1.52;0.80;;;18.50;58.50;;;;;;5010375;28;20014;-72
2022/04/08 07:46:22;;;;;;;2.80;0.73;;;18.50;57.40;;;;;;5009113;28;20014;-78
2022/04/08 07:48:48;;;;;;;2.47;1.27;;;18.50;57.20;;;;;;5011557;28;20076;-78
2022/04/08 07:51:15;;;;;;;3.08;0.90;;;18.60;57.40;;;;;;5008555;28;20512;-73
2022/04/08 07:53:42;;;;;;;2.85;1.23;;;18.60;57.20;;;;;;5005155;28;20029;-77
2022/04/08 07:56:08;;;;;;;3.85;0.90;;;18.70;56.90;;;;;;5008517;28;20379;-76
2022/04/08 07:58:34;;;;;;;1.17;0.60;;;18.70;56.50;;;;;;5009575;28;20033;-72
2022/04/08 08:01:01;;;;;;;2.83;1.10;;;18.80;56.20;;;;;;5008841;28;20104;-79
2022/04/08 08:03:28;;;;;;;3.47;0.70;;;18.80;55.90;;;;;;5006828;28;20021;-73
2022/04/08 08:05:54;;;;;;;7.30;0.80;;;18.90;55.40;;;;;;5008283;28;20413;-72
2022/04/08 08:08:21;;;;;;;1.40;1.02;;;18.90;55.20;;;;;;5007324;28;20021;-72
2022/04/08 08:10:47;;;;;;;1.98;0.60;;;19.00;54.80;;;;;;5007986;28;20030;-74
2022/04/08 08:13:13;;;;;;;5.88;0.88;;;19.00;54.30;;;;;;5008289;28;20033;-73
2022/04/08 08:15:41;;;;;;;1.88;0.70;;;19.10;54.00;;;;;;5010250;28;20065;-72
2022/04/08 08:18:08;;;;;;;3.17;0.80;;;19.10;53.40;;;;;;5008069;28;20045;-74
2022/04/08 08:20:35;;;;;;;1.60;0.50;;;19.20;53.20;;;;;;5007995;28;20492;-73
2022/04/08 08:23:01;;;;;;;5.00;1.00;;;19.20;52.50;;;;;;5010903;28;20021;-72
2022/04/08 08:25:27;;;;;;;5.72;0.85;;;19.30;52.00;;;;;;5006630;28;20032;-73
2022/04/08 08:28:01;;;;;;;4.32;0.90;;;19.30;51.90;;;;;;5010102;28;20145;-75
2022/04/08 08:30:29;;;;;;;2.47;1.13;;;19.30;52.10;;;;;;5008120;28;20029;-72
2022/04/08 08:32:56;;;;;;;5.40;1.25;;;19.40;52.30;;;;;;5007795;28;20061;-72
2022/04/08 08:35:25;;;;;;;9.07;0.90;;;19.40;52.60;;;;;;5006519;28;20037;-78
2022/04/08 08:37:52;;;;;;;4.63;1.05;;;19.50;53.00;;;;;;5008683;28;20013;-73
2022/04/08 08:40:19;;;;;;;3.47;0.75;;;19.50;53.20;;;;;;5009950;28;20194;-74
2022/04/08 08:42:46;;;;;;;0.90;0.55;;;19.60;53.10;;;;;;5009051;28;20024;-72
2022/04/08 08:45:14;;;;;;;4.30;0.93;;;19.70;53.00;;;;;;5008859;28;20413;-75
2022/04/08 08:47:47;;;;;;;5.07;0.63;;;19.70;52.90;;;;;;5008576;28;21431;-72
2022/04/08 08:50:14;;;;;;;1.00;0.50;;;19.80;52.80;;;;;;5007170;28;20041;-72
2022/04/08 08:52:42;;;;;;;1.15;0.45;;;19.90;52.80;;;;;;5009484;28;20033;-72
2022/04/08 08:55:09;;;;;;;3.95;0.60;;;19.90;52.20;;;;;;5003624;28;20046;-72
2022/04/08 08:57:35;;;;;;;4.65;0.57;;;20.00;51.90;;;;;;5009571;28;20065;-72
2022/04/08 09:00:13;;;;;;;1.00;0.52;;;20.00;52.00;;;;;;5007722;28;20103;-78
2022/04/08 09:02:41;;;;;;;10.07;1.73;;;20.10;51.60;;;;;;5007791;28;20036;-76
2022/04/08 09:05:15;;;;;;;1.00;0.20;;;20.20;51.10;;;;;;5004149;28;20398;-72
2022/04/08 09:07:42;;;;;;;0.73;0.40;;;20.20;50.00;;;;;;5007873;28;20026;-72
2022/04/08 09:10:09;;;;;;;1.02;0.20;;;20.30;49.70;;;;;;5006025;28;20030;-72
2022/04/08 09:12:35;;;;;;;1.15;0.30;;;20.40;49.30;;;;;;5006105;28;20075;-77
2022/04/08 09:15:03;;;;;;;3.47;0.40;;;20.40;49.00;;;;;;5007488;28;20032;-72
2022/04/08 09:17:30;;;;;;;0.57;0.30;;;20.40;48.60;;;;;;5007548;28;20489;-77
2022/04/08 09:19:58;;;;;;;2.05;0.20;;;20.50;48.20;;;;;;5004833;28;20037;-72
2022/04/08 09:22:36;;;;;;;6.78;0.65;;;20.50;48.00;;;;;;5005279;28;20018;-74
2022/04/08 09:25:10;;;;;;;4.00;1.35;;;20.60;47.70;;;;;;5006223;28;20018;-73
2022/04/08 09:27:41;;;;;;;2.85;0.20;;;20.70;47.90;;;;;;5008592;28;20397;-76
2022/04/08 09:30:09;;;;;;;2.60;0.20;;;20.80;47.80;;;;;;5003488;28;20038;-75
2022/04/08 09:32:36;;;;;;;2.00;0.15;;;20.80;47.60;;;;;;5005491;28;20017;-72
2022/04/08 09:35:04;;;;;;;1.77;0.40;;;20.90;46.90;;;;;;5006840;28;20045;-72
2022/04/08 09:37:30;;;;;;;0.57;0.10;;;20.90;46.60;;;;;;5007323;28;20096;-74
2022/04/08 09:40:03;;;;;;;1.20;0.40;;;21.00;46.40;;;;;;5022976;28;20380;-72
2022/04/08 09:42:47;;;;;;;1.05;0.43;;;21.10;46.30;;;;;;5005440;28;20084;-77
2022/04/08 09:45:25;;;;;;;0.73;0.20;;;21.10;46.20;;;;;;5015043;28;20026;-72
2022/04/08 09:47:52;;;;;;;1.27;0.10;;;21.20;46.00;;;;;;5007051;28;20018;-71
2022/04/08 09:50:18;;;;;;;4.30;0.55;;;21.30;46.00;;;;;;5017451;28;20034;-72
2022/04/08 09:52:45;;;;;;;2.05;0.50;;;21.30;45.80;;;;;;5006253;28;20014;-74
2022/04/08 09:55:13;;;;;;;3.30;0.40;;;21.50;45.60;;;;;;5006609;28;20113;-71
2022/04/08 09:57:41;;;;;;;6.57;0.68;;;21.50;45.00;;;;;;5004497;28;20022;-75
2022/04/08 10:00:08;;;;;;;2.15;0.40;;;21.60;44.80;;;;;;5006434;28;20437;-72
2022/04/08 10:02:45;;;;;;;1.52;0.43;;;21.60;45.00;;;;;;5004810;28;20022;-71
2022/04/08 10:05:12;;;;;;;2.60;0.20;;;21.70;45.10;;;;;;5007620;28;20022;-72
2022/04/08 10:07:40;;;;;;;2.97;0.47;;;21.80;44.60;;;;;;5008484;28;20986;-74
2022/04/08 10:10:19;;;;;;;0.85;0.30;;;21.90;44.20;;;;;;5007065;28;20029;-73
2022/04/08 10:13:03;;;;;;;0.70;0.47;;;21.90;44.20;;;;;;5006208;28;20037;-73
2022/04/08 10:15:42;;;;;;;1.27;0.30;;;22.00;43.90;;;;;;5005270;28;20112;-75
2022/04/08 10:18:09;;;;;;;2.65;0.40;;;22.10;44.20;;;;;;5003262;28;20488;-81
2022/04/08 10:20:38;;;;;;;4.43;0.47;;;22.10;44.40;;;;;;5009711;28;20029;-73
2022/04/08 10:23:05;;;;;;;2.17;0.20;;;22.20;43.70;;;;;;5007172;28;20029;-72
2022/04/08 10:25:38;;;;;;;1.13;0.22;;;22.30;43.60;;;;;;5004330;28;20033;-72
2022/04/08 10:28:06;;;;;;;0.35;0.20;;;22.30;43.70;;;;;;5007619;28;20085;-72
2022/04/08 10:30:56;;;;;;;1.65;0.30;;;22.40;42.80;;;;;;5006482;28;20113;-71
2022/04/08 10:33:28;;;;;;;1.33;0.28;;;22.40;42.90;;;;;;5007824;28;20030;-73
2022/04/08 10:35:59;;;;;;;0.20;0.20;;;22.50;42.70;;;;;;5006797;28;20076;-71
2022/04/08 10:38:38;;;;;;;1.85;0.20;;;22.60;41.90;;;;;;5007023;28;20148;-72
2022/04/08 10:41:11;;;;;;;0.45;0.30;;;22.70;41.70;;;;;;5006975;28;20053;-76
2022/04/08 10:43:49;;;;;;;5.40;0.38;;;22.70;41.30;;;;;;5007887;28;20022;-72
2022/04/08 10:46:32;;;;;;;6.78;0.32;;;22.80;41.30;;;;;;5006998;28;20029;-74
2022/04/08 10:48:59;;;;;;;0.85;0.20;;;22.80;41.10;;;;;;5006884;28;20069;-73
2022/04/08 10:51:32;;;;;;;0.35;0.30;;;22.90;40.20;;;;;;5002797;28;20026;-71
2022/04/08 10:54:05;;;;;;;0.25;0.20;;;23.00;40.20;;;;;;5007405;28;20018;-72
2022/04/08 10:56:35;;;;;;;1.23;0.20;;;23.00;40.60;;;;;;5008254;28;20054;-72
2022/04/08 10:59:02;;;;;;;0.75;0.20;;;23.10;40.40;;;;;;5009299;28;20018;-73
2022/04/08 11:01:28;;;;;;;1.77;0.55;;;23.20;39.20;;;;;;5008990;28;20072;-73
2022/04/08 11:04:00;;;;;;;0.63;0.20;;;23.20;39.60;;;;;;5011281;28;20006;-72
2022/04/08 11:06:28;;;;;;;0.20;0.20;;;23.30;39.00;;;;;;5010410;28;20033;-71
2022/04/08 11:08:54;;;;;;;1.70;0.20;;;23.40;39.20;;;;;;5008658;28;20017;-77
2022/04/08 11:11:29;;;;;;;0.50;0.28;;;23.50;39.20;;;;;;5007966;28;20037;-72
2022/04/08 11:13:59;;;;;;;0.25;0.20;;;23.50;39.20;;;;;;5005853;28;20024;-75
2022/04/08 11:16:31;;;;;;;0.68;0.17;;;23.60;38.50;;;;;;5009631;28;20032;-72
2022/04/08 11:18:59;;;;;;;0.70;0.28;;;23.60;38.90;;;;;;5009049;28;20584;-76
2022/04/08 11:21:25;;;;;;;2.33;0.20;;;23.70;39.00;;;;;;5010389;28;20018;-73
2022/04/08 11:24:21;;;;;;;1.13;0.57;;;23.80;38.90;;;;;;5008492;28;20497;-72
2022/04/08 11:27:27;;;;;;;0.30;0.20;;;23.80;38.70;;;;;;5010539;28;20040;-72
2022/04/08 11:30:33;;;;;;;1.27;0.20;;;23.90;38.60;;;;;;5011708;28;20064;-72
2022/04/08 11:33:19;;;;;;;;;;;24.00;38.40;;;;;;5010716;28;20033;-73
2022/04/08 11:36:25;;;;;;;0.35;0.20;;;24.00;38.50;;;;;;5009331;28;19912;-72
2022/04/08 11:39:31;;;;;;;2.28;0.77;;;24.10;38.20;;;;;;5009635;28;20079;-71
2022/04/08 11:42:37;;;;;;;3.67;0.43;;;24.20;37.40;;;;;;5008507;28;20014;-77
2022/04/08 11:45:04;;;;;;;0.95;0.40;;;24.20;37.30;;;;;;5008979;28;20026;-73
2022/04/08 11:47:32;;;;;;;2.00;0.40;;;24.20;36.90;;;;;;5007492;28;20033;-75
2022/04/08 11:50:09;;;;;;;5.15;0.40;;;24.30;37.10;;;;;;5005887;28;20018;-73
2022/04/08 11:52:37;;;;;;;1.85;0.22;;;24.30;36.70;;;;;;5005007;28;20026;-71
2022/04/08 11:55:09;;;;;;;1.27;0.17;;;24.40;36.60;;;;;;5007820;28;20088;-78
2022/04/08 11:57:38;;;;;;;0.80;0.35;;;24.40;36.60;;;;;;5009067;28;20022;-74
2022/04/08 12:00:08;;;;;;;3.42;0.20;;;24.50;36.50;;;;;;5008983;28;20538;-72
2022/04/08 12:02:36;;;;;;;0.10;0.10;;;24.60;36.10;;;;;;5008966;28;20041;-78
2022/04/08 12:05:03;;;;;;;2.88;0.30;;;24.60;35.60;;;;;;5007614;28;20025;-72
2022/04/08 12:07:30;;;;;;;1.40;0.10;;;24.70;36.20;;;;;;5009977;28;20049;-74
2022/04/08 12:09:58;;;;;;;0.60;0.20;;;24.70;36.10;;;;;;5004971;28;20014;-81
2022/04/08 12:12:29;;;;;;;2.63;0.30;;;24.80;35.80;;;;;;5008993;28;20049;-82
2022/04/08 12:15:16;;;;;;;0.20;0.10;;;24.80;35.60;;;;;;5005965;28;20026;-73
2022/04/08 12:17:43;;;;;;;0.47;0.20;;;24.80;35.30;;;;;;5001978;28;20041;-72
2022/04/08 12:20:18;;;;;;;2.22;0.40;;;24.90;34.90;;;;;;5007378;28;20503;-72
2022/04/08 12:22:46;;;;;;;0.52;0.30;;;24.90;34.90;;;;;;5008619;28;20109;-72
2022/04/08 12:25:14;;;;;;;0.30;0.30;;;24.90;34.60;;;;;;5010340;28;20110;-73
2022/04/08 12:27:41;;;;;;;0.17;0.17;;;25.00;34.20;;;;;;5006806;28;20057;-72
2022/04/08 12:30:09;;;;;;;1.33;0.15;;;25.00;34.00;;;;;;5007646;28;20020;-74
2022/04/08 12:32:42;;;;;;;1.20;0.30;;;25.00;34.50;;;;;;5005973;28;20076;-72
2022/04/08 12:35:10;;;;;;;1.27;0.30;;;25.00;34.10;;;;;;5004976;28;20014;-81
2022/04/08 12:37:37;;;;;;;4.13;0.40;;;25.10;33.90;;;;;;5007992;28;20068;-72
2022/04/08 12:40:05;;;;;;;2.90;0.30;;;25.10;33.70;;;;;;5008877;28;20354;-76
2022/04/08 12:42:41;;;;;;;0.60;0.60;;;25.10;33.70;;;;;;5013554;28;20073;-80
2022/04/08 12:45:08;;;;;;;0.55;0.20;;;25.10;33.90;;;;;;5003320;28;20381;-72
2022/04/08 12:47:35;;;;;;;1.77;0.20;;;25.20;34.30;;;;;;5008405;28;20014;-75
2022/04/08 12:50:01;;;;;;;0.65;0.38;;;25.20;34.50;;;;;;5009196;28;20030;-76
2022/04/08 12:52:28;;;;;;;0.30;0.30;;;25.20;34.50;;;;;;5006384;28;20037;-75
2022/04/08 12:54:54;;;;;;;1.05;0.30;;;25.20;34.30;;;;;;5008791;28;20017;-72